x

East Lake Ontario - 20nm North Northeast Of Rochester, Ny (45012) Weather Station

10:50am - Tue 26th Sep 2017 All times are CDT. -5 hours from GMT.

  • Average Period 3s
  • Wind
    4mph, 7mph gusts
  • Sea Temp 73°f
  • Air Temp 72°f
  • Sea Pressure 1015.9mb
  • East Lake Ontario  - 20nm North Northeast Of Rochester, Ny
  • East Lake Ontario  - 20nm North Northeast Of Rochester, Ny

More Historic Weather Station data

Upgrade to MSW Pro to gain access to the past 30 days of data for over 8000 Wavebouys and Weather Stations around the globe.

Join

Comparision Forecast

View Surf forecast
   
Tue 09/26 10:50am  -   -  3s 4 7 mph 1015.9mb 73f 72f
9:50am  -   -  4s 7 7 mph 1016mb 73f 72f
8:50am  -   -  4s 7 9 mph 1016.2mb 72f 72f
7:50am  -   -  4s 4 4 mph 1016mb 72f 72f
6:50am  -   -  4s 4 4 mph 1016mb 72f 72f
5:50am 0.3ft  -  4s 7 7 mph 1015.6mb 73f 72f
4:50am 0.3ft  -  4s 7 7 mph 1015.5mb 73f 72f
3:50am  -   -  4s 7 7 mph 1015.6mb 73f 72f
2:50am 0.3ft  -  5s 4 7 mph 1015.8mb 73f 72f
1:50am 0.3ft  -  4s 2 2 mph 1016mb 73f 73f
12:50am  -   -  3s 2 2 mph 1016.2mb 73f 73f
Mon 09/25 11:50pm  -   -  3s 2 2 mph 1015.8mb 73f 73f
10:50pm 0.3ft  -  4s 4 7 mph 1015.6mb 73f 73f
9:50pm  -   -  3s 7 7 mph 1015.9mb 74f 73f
8:50pm  -   -  3s 7 7 mph 1016.2mb 74f 73f
7:50pm  -   -  3s 7 7 mph 1016.5mb 74f 74f
6:50pm  -   -  3s 2 4 mph 1016.4mb 75f 74f
5:50pm  -   -  3s 2 2 mph 1016.7mb 75f 74f
4:50pm  -   -  3s 4 4 mph 1016.7mb 75f 75f
3:50pm  -   -  4s 4 4 mph 1017.1mb 76f 76f
2:50pm  -   -  3s 2 2 mph 1017.5mb 75f 76f
1:50pm  -   -  3s 2 2 mph 1018mb 74f 75f
12:50pm 0.3ft  -  3s 2 2 mph 1018.4mb 73f 73f
11:50am  -   -  3s 4 4 mph 1018.9mb 73f 72f
10:50am  -   -  3s 2 4 mph 1019.1mb 72f 73f
9:50am  -   -  3s 4 4 mph 1019.2mb 72f 72f
8:50am  -   -  3s 4 4 mph 1019.3mb 71f 72f
7:50am 0.3ft  -  3s 4 4 mph 1019.1mb 71f 72f
6:50am  -   -  3s 4 4 mph 1018.8mb 71f 72f
5:50am  -   -  3s 4 4 mph 1018.6mb 71f 72f
4:50am 0.3ft  -  3s 2 2 mph 1018.1mb 71f 72f
3:50am 0.3ft  -  3s 4 4 mph 1018mb 71f 72f
2:50am 0.3ft  -  3s 4 4 mph 1018.1mb 71f 72f
1:50am 0.3ft  -  3s 4 4 mph 1018.2mb 72f 73f
12:50am 0.3ft  -  2s 7 7 mph 1018.4mb 72f 74f
Sun 09/24 11:50pm 0.3ft  -  2s 4 4 mph 1018.4mb 72f 73f
10:50pm 0.3ft  -  3s 4 7 mph 1018.5mb 72f 73f
9:50pm 0.3ft  -  3s 4 7 mph 1018.7mb 72f 73f
8:50pm 0.3ft  -  3s 4 4 mph 1018.6mb 72f 74f
7:50pm 0.3ft  -  3s 4 4 mph 1018.5mb 72f 73f
6:50pm 0.3ft  -  3s 4 4 mph 1018.3mb 72f 73f
5:50pm 0.3ft  -  3s 7 7 mph 1018.1mb 72f 74f
4:50pm 0.7ft  -  3s 7 7 mph 1018.2mb 72f 74f
3:50pm  -   -   -  7 7 mph 1018.3mb 72f 74f
2:50pm 0.7ft  -  3s 7 9 mph 1018.9mb 72f 73f
1:50pm 0.7ft  -  3s 9 9 mph 1019.3mb 72f 73f
12:50pm 0.3ft  -  3s 11 11 mph 1019.5mb 72f 72f
11:50am  -   -   -  9 11 mph 1020.2mb 71f 72f
10:50am 0.3ft  -  2s 7 9 mph 1020.4mb 71f 71f
9:50am 0.3ft  -  3s 9 11 mph 1020.8mb 71f 71f
8:50am 0.3ft  -  3s 9 11 mph 1020.8mb 71f 71f
7:50am 0.3ft  -  2s 9 11 mph 1020.6mb 71f 71f
6:50am 0.3ft  -  2s 9 11 mph 1020.3mb 71f 71f
5:50am  -   -   -  9 9 mph 1019.9mb 71f 71f
4:50am 0.3ft  -  2s 9 11 mph 1019.8mb 71f 71f
3:50am 0.3ft  -  2s 7 9 mph 1019.7mb 71f 71f
2:50am 0.3ft  -  3s 7 7 mph 1019.5mb 71f 71f
1:50am 0.3ft  -  3s 7 7 mph 1019.2mb 71f 71f
12:50am 0.3ft  -  3s 7 7 mph 1019mb 71f 72f
Sat 09/23 11:50pm 0.7ft  -  3s 7 9 mph 1018.8mb 71f 72f
10:50pm  -   -   -  9 9 mph 1018.5mb 71f 72f
9:50pm 0.7ft  -  3s 9 9 mph 1018.3mb 71f 72f
8:50pm 0.7ft  -  3s 9 9 mph 1017.9mb 71f 73f
7:50pm 0.7ft  -  3s 9 9 mph 1018mb 71f 73f
6:50pm 0.7ft  -  3s 9 9 mph 1017.7mb 71f 73f
5:50pm 0.7ft  -  3s 11 11 mph 1017.6mb 72f 74f
4:50pm 0.7ft  -  3s 11 11 mph 1017.7mb 72f 73f
3:50pm 0.7ft  -  3s 11 11 mph 1018mb 72f 73f
2:50pm 0.7ft  -  3s 11 13 mph 1018.2mb 71f 73f
1:50pm 0.7ft  -  3s 9 11 mph 1019.2mb 71f 72f
12:50pm 0.7ft  -  3s 11 11 mph 1019.5mb 71f 72f
11:50am 0.7ft  -  3s 9 9 mph 1019.8mb 71f 71f
10:50am  -   -   -  9 11 mph 1020.1mb 71f 69f
9:50am 0.7ft  -  2s 11 13 mph 1020.1mb 71f 69f
8:50am 0.3ft  -  2s 9 11 mph 1020.2mb 70f 69f
7:50am 0.3ft  -  3s 9 11 mph 1020mb 70f 70f
6:50am 0.3ft  -  2s 7 9 mph 1019.7mb 70f 70f
5:50am 0.3ft  -  2s 7 7 mph 1018.9mb 70f 70f
4:50am 0.3ft  -  2s 9 11 mph 1018.4mb 70f 70f
3:50am 0.3ft  -  3s 7 9 mph 1017.6mb 70f 70f
2:50am 0.3ft  -  4s 7 9 mph 1018.2mb 71f 70f
1:50am 0.3ft  -  3s 7 7 mph 1018.1mb 71f 70f
12:50am 0.3ft  -  3s 4 4 mph 1018.4mb 71f 70f
Fri 09/22 11:50pm 0.3ft  -  3s 2 2 mph 1018.6mb 71f 70f
10:50pm 0.3ft  -  3s 4 7 mph 1018.7mb 71f 70f
9:50pm 0.3ft  -  3s 4 7 mph 1019mb 71f 70f
8:50pm 0.3ft  -  3s 7 7 mph 1018.6mb 71f 70f
7:50pm 0.3ft  -  3s 9 11 mph 1018.9mb 71f 70f
6:50pm 0.3ft  -  3s 7 9 mph 1018.8mb 72f 71f
5:50pm 0.7ft  -  3s 9 9 mph 1018.7mb 72f 71f